Time;durP1;ratioP1;P1;durP2;ratioP2;P2;SDS_P1;SDS_P2;PMS_P1;PMS_P2;Temp;Humidity;BMP_temperature;BMP_pressure;BME280_temperature;BME280_humidity;BME280_pressure;Samples;Min_cycle;Max_cycle;Signal;HPM_P1;HPM_P2
2021/12/15 07:26:08;;;;;;;;;36.00;32.25;;;;;10.46;70.92;102935.47;5842190;23;45637;-87
2021/12/15 07:28:33;;;;;;;;;35.00;28.75;;;;;10.50;70.58;102953.34;4971926;28;45485;-86
2021/12/15 07:30:59;;;;;;;;;33.75;29.25;;;;;10.48;71.06;102944.44;4978198;28;45507;-88
2021/12/15 07:33:24;;;;;;;;;32.75;29.25;;;;;10.46;70.82;102945.97;4972548;28;45485;-84
2021/12/15 07:35:50;;;;;;;;;36.25;31.50;;;;;10.49;71.35;102954.13;4973315;28;45393;-85
2021/12/15 07:38:15;;;;;;;;;34.75;32.50;;;;;10.49;70.55;102959.38;4972017;28;45446;-86
2021/12/15 07:40:41;;;;;;;;;35.50;32.75;;;;;10.49;70.32;102959.38;4973456;28;45371;-88
2021/12/15 07:43:13;;;;;;;;;32.75;28.75;;;;;10.47;70.63;102963.59;4970761;28;48441;-86
2021/12/15 07:45:45;;;;;;;;;39.50;35.75;;;;;10.50;71.26;102960.28;4972053;28;45764;-87
2021/12/15 07:48:14;;;;;;;;;35.00;30.25;;;;;10.52;70.82;102970.94;4970281;28;46737;-86
2021/12/15 07:50:42;;;;;;;;;38.00;29.00;;;;;10.53;70.43;102971.09;4976809;28;45282;-86
2021/12/15 07:53:09;;;;;;;;;35.25;32.50;;;;;10.49;70.53;102967.25;4953048;28;47218;-86
2021/12/15 07:55:35;;;;;;;;;40.75;35.00;;;;;10.46;71.24;102967.00;4972947;28;45403;-86
2021/12/15 07:58:02;;;;;;;;;38.00;34.00;;;;;10.50;70.71;102970.78;4971321;28;45697;-88
2021/12/15 08:00:29;;;;;;;;;38.75;32.50;;;;;10.49;71.11;102964.63;4971931;28;45744;-89
2021/12/15 08:02:54;;;;;;;;;38.50;34.50;;;;;10.50;70.96;102966.47;4970486;28;47375;-87
2021/12/15 08:05:21;;;;;;;;;35.25;30.00;;;;;10.58;71.19;102976.72;4970807;28;45336;-87
2021/12/15 08:07:47;;;;;;;;;32.00;26.33;;;;;10.61;71.03;102976.97;4970342;28;45510;-85
2021/12/15 08:10:14;;;;;;;;;13.67;13.33;;;;;10.62;70.51;102965.66;4972304;28;45660;-86
2021/12/15 08:12:41;;;;;;;;;23.67;18.33;;;;;10.64;70.03;102968.41;4949072;28;47692;-86
2021/12/15 08:15:08;;;;;;;;;21.33;16.67;;;;;10.65;69.88;102976.41;4968540;28;45540;-85
2021/12/15 08:17:35;;;;;;;;;20.00;15.00;;;;;10.68;70.11;102975.75;4974102;28;45416;-86
2021/12/15 08:20:01;;;;;;;;;13.33;11.00;;;;;10.73;70.10;102980.59;4971466;28;45626;-86
2021/12/15 08:22:26;;;;;;;;;18.67;13.00;;;;;10.77;69.85;102986.09;4972886;28;46277;-86
2021/12/15 08:24:51;;;;;;;;;19.00;17.33;;;;;10.77;69.96;102976.47;4970024;28;45917;-85
2021/12/15 08:27:17;;;;;;;;;13.33;13.33;;;;;10.79;69.48;102974.00;4971545;28;46126;-86
2021/12/15 08:29:42;;;;;;;;;13.33;12.67;;;;;10.81;69.68;102973.31;4967682;28;45516;-86
2021/12/15 08:32:07;;;;;;;;;20.33;15.67;;;;;10.84;69.44;102980.53;4983342;28;47789;-85
2021/12/15 08:34:33;;;;;;;;;19.33;15.67;;;;;10.87;69.30;102979.88;4977898;28;45768;-86
2021/12/15 08:36:58;;;;;;;;;21.00;17.33;;;;;10.89;69.09;102983.53;4974504;28;45769;-86
2021/12/15 08:39:24;;;;;;;;;19.00;16.33;;;;;10.92;68.99;102989.03;4951560;28;45900;-86
2021/12/15 08:41:49;;;;;;;;;22.00;18.33;;;;;10.93;68.54;102985.59;4953965;28;47166;-86
2021/12/15 08:44:15;;;;;;;;;21.00;19.00;;;;;10.91;68.97;102981.94;4970697;28;45394;-87
2021/12/15 08:46:44;;;;;;;;;22.33;17.00;;;;;10.95;69.20;102991.91;4970905;28;45619;-86
2021/12/15 08:49:16;;;;;;;;;21.67;19.33;;;;;11.00;69.20;102982.69;4970401;28;45589;-86
2021/12/15 08:51:42;;;;;;;;;18.67;18.67;;;;;11.08;68.69;102985.91;4975581;28;45542;-85
2021/12/15 08:54:14;;;;;;;;;25.67;21.67;;;;;11.13;69.18;102992.44;4966527;28;45452;-86
2021/12/15 08:56:41;;;;;;;;;24.00;23.67;;;;;11.17;69.01;102986.66;4986559;28;45155;-86
2021/12/15 08:59:07;;;;;;;;;24.33;21.67;;;;;11.18;69.37;102985.84;4993830;28;45395;-86
2021/12/15 09:01:32;;;;;;;;;20.67;17.00;;;;;11.24;68.55;102990.66;4994871;28;47465;-85
2021/12/15 09:03:58;;;;;;;;;15.33;14.33;;;;;11.30;68.41;102998.13;4981088;28;44993;-85
2021/12/15 09:06:24;;;;;;;;;15.67;11.33;;;;;11.29;68.88;102988.41;4970778;28;45574;-86
2021/12/15 09:08:50;;;;;;;;;16.33;14.33;;;;;11.34;68.49;102987.03;5369628;22;45875;-87
2021/12/15 09:11:20;;;;;;;;;22.00;18.67;;;;;11.35;68.48;102988.88;5003381;28;48264;-87
2021/12/15 09:13:49;;;;;;;;;18.67;16.00;;;;;11.44;68.05;103001.81;4971140;28;45536;-87
2021/12/15 09:16:15;;;;;;;;;16.33;14.67;;;;;11.44;68.14;103001.81;4971673;28;45800;-87
2021/12/15 09:18:43;;;;;;;;;18.33;15.00;;;;;11.46;67.88;103002.88;4973680;28;45442;-87
2021/12/15 09:21:11;;;;;;;;;18.33;16.00;;;;;11.49;67.70;103008.34;4962170;28;47541;-87
2021/12/15 09:23:37;;;;;;;;;18.00;13.67;;;;;11.51;67.81;102998.91;4971917;28;45986;-88
2021/12/15 09:26:04;;;;;;;;;20.00;16.67;;;;;11.58;68.61;102997.66;4983418;28;47167;-87
2021/12/15 09:28:32;;;;;;;;;19.67;17.00;;;;;11.60;68.24;102998.69;4974229;28;45402;-88
2021/12/15 09:30:59;;;;;;;;;19.33;18.33;;;;;11.64;68.06;102998.94;4977052;28;45445;-88
2021/12/15 09:33:29;;;;;;;;;15.67;14.67;;;;;11.70;68.41;103016.09;4980057;28;45511;-87
2021/12/15 09:35:55;;;;;;;;;18.33;17.00;;;;;11.73;68.08;103010.16;4990288;28;45276;-87
2021/12/15 09:38:22;;;;;;;;;15.67;15.67;;;;;11.76;67.30;103018.28;4973203;28;45556;-87
2021/12/15 09:40:52;;;;;;;;;18.33;16.33;;;;;11.76;67.67;103007.78;4974421;28;46576;-87
2021/12/15 09:43:18;;;;;;;;;15.67;13.67;;;;;11.79;67.93;103005.38;4973731;28;45830;-87
2021/12/15 10:04:39;;;;;;;;;17.00;15.00;;;;;11.80;66.68;103003.66;4972489;28;45515;-88
2021/12/15 10:18:07;;;;;;;;;18.67;17.00;;;;;11.94;67.44;103012.59;4972015;28;45462;-88
2021/12/15 10:20:37;;;;;;;;;17.00;15.33;;;;;11.97;66.55;103010.22;4976039;28;45624;-87
2021/12/15 10:23:04;;;;;;;;;16.67;13.33;;;;;11.95;66.90;103010.09;4985543;28;46448;-87
2021/12/15 10:25:32;;;;;;;;;17.33;16.67;;;;;12.01;67.09;103014.91;4972041;28;45637;-86
2021/12/15 10:28:05;;;;;;;;;16.67;16.00;;;;;12.06;66.81;103016.16;4963547;28;45399;-88
2021/12/15 10:30:41;;;;;;;;;19.67;15.67;;;;;12.05;66.47;103017.00;4973408;28;45528;-87
2021/12/15 10:33:17;;;;;;;;;18.67;17.00;;;;;12.09;66.76;103012.84;4969786;28;48084;-88
2021/12/15 10:35:48;;;;;;;;;19.00;15.00;;;;;12.12;66.95;103015.72;4973107;28;45517;-87
2021/12/15 10:38:16;;;;;;;;;14.33;11.33;;;;;12.15;66.78;103018.63;4977812;28;45302;-88
2021/12/15 10:40:53;;;;;;;;;15.67;12.67;;;;;12.18;67.00;103010.03;4974023;28;45373;-88
2021/12/15 10:43:20;;;;;;;;;13.00;12.00;;;;;12.18;66.73;103008.34;4968505;28;48228;-88
2021/12/15 10:45:57;;;;;;;;;16.67;14.00;;;;;12.17;66.39;103002.94;4977783;28;45790;-87
2021/12/15 10:48:35;;;;;;;;;21.67;14.00;;;;;12.19;66.60;103019.75;4979354;28;46020;-87
2021/12/15 10:51:16;;;;;;;;;16.67;13.67;;;;;12.23;65.83;103011.31;4987021;28;45327;-88
2021/12/15 10:53:42;;;;;;;;;14.67;13.33;;;;;12.25;66.29;102999.16;4968652;28;46629;-87
2021/12/15 10:56:17;;;;;;;;;12.67;12.00;;;;;12.28;66.82;103002.03;4978300;28;45682;-88
2021/12/15 10:58:49;;;;;;;;;13.33;11.67;;;;;12.25;65.34;102999.16;4974360;28;46093;-87
2021/12/15 11:01:39;;;;;;;;;9.33;7.67;;;;;12.28;65.86;103009.94;4971720;28;45590;-87
2021/12/15 11:04:39;;;;;;;;;13.33;12.67;;;;;12.32;65.80;103015.44;4972713;28;46396;-87
2021/12/15 11:07:08;;;;;;;;;10.00;10.00;;;;;12.34;65.92;103009.50;4968338;28;45702;-87
2021/12/15 11:09:40;;;;;;;;;10.67;9.67;;;;;12.33;65.14;103007.66;4973054;28;45474;-87
2021/12/15 11:12:08;;;;;;;;;15.67;11.00;;;;;12.30;66.29;103007.41;4976017;28;49997;-88
2021/12/15 11:14:36;;;;;;;;;12.33;12.33;;;;;12.32;65.80;103007.53;4971547;28;46786;-88
2021/12/15 11:17:12;;;;;;;;;14.00;13.00;;;;;12.29;66.35;103003.84;4979488;28;45493;-87
2021/12/15 11:19:49;;;;;;;;;15.33;12.33;;;;;12.32;65.54;102999.63;4986883;28;44815;-88
2021/12/15 11:22:45;;;;;;;;;11.00;10.00;;;;;12.30;65.91;102999.50;4989934;28;45429;-87
2021/12/15 11:25:19;;;;;;;;;11.67;10.00;;;;;12.27;65.84;102996.63;5011861;28;46326;-87
2021/12/15 11:27:58;;;;;;;;;10.00;10.00;;;;;12.24;65.98;102993.81;4993537;28;45218;-87
2021/12/15 11:31:02;;;;;;;;;14.67;11.00;;;;;12.19;65.69;102988.16;4999920;28;44839;-84
2021/12/15 11:33:33;;;;;;;;;13.33;10.00;;;;;12.18;65.80;102996.88;4892699;29;44920;-83
2021/12/15 11:36:31;;;;;;;;;12.33;11.33;;;;;12.15;65.51;102986.13;4910697;29;47507;-85
2021/12/15 11:39:19;;;;;;;;;12.33;12.33;;;;;12.13;66.37;102990.31;5031672;23;45163;-86
2021/12/15 11:41:47;;;;;;;;;16.67;16.00;;;;;12.11;65.65;102990.19;4979441;28;44787;-87
2021/12/15 11:44:24;;;;;;;;;11.67;11.67;;;;;12.16;65.65;102980.06;4976934;28;44727;-90
2021/12/15 11:46:58;;;;;;;;;18.00;12.00;;;;;12.22;65.30;102987.47;4965242;28;45306;-88
2021/12/15 11:49:30;;;;;;;;;11.33;11.33;;;;;12.20;65.43;102978.56;4987436;28;45505;-87
2021/12/15 11:52:00;;;;;;;;;15.67;12.33;;;;;12.26;65.58;102984.28;4970352;28;45149;-88
2021/12/15 11:54:29;;;;;;;;;20.00;15.67;;;;;12.24;65.44;102978.88;4982370;28;45399;-87
2021/12/15 11:57:03;;;;;;;;;12.00;10.00;;;;;12.26;65.87;102981.66;4962959;28;46384;-88
2021/12/15 11:59:35;;;;;;;;;20.67;16.00;;;;;12.26;66.31;102976.38;4954709;28;45369;-90
2021/12/15 12:02:19;;;;;;;;;16.33;16.00;;;;;12.32;65.51;102974.19;4954501;28;45455;-86
2021/12/15 12:04:47;;;;;;;;;13.00;10.33;;;;;12.36;65.49;102978.00;4954616;28;45373;-87
2021/12/15 12:07:13;;;;;;;;;13.33;10.67;;;;;12.40;64.94;102980.97;4965885;28;47352;-87
2021/12/15 12:09:44;;;;;;;;;12.67;10.00;;;;;12.40;64.64;102980.03;4962880;28;45681;-89
2021/12/15 12:12:11;;;;;;;;;10.00;10.00;;;;;12.43;64.99;102977.63;4971202;28;45406;-88
2021/12/15 12:14:48;;;;;;;;;12.33;9.00;;;;;12.40;65.08;102970.41;4954927;28;45454;-86
2021/12/15 12:17:21;;;;;;;;;9.67;8.67;;;;;12.44;65.00;102976.84;4959502;28;48479;-87
2021/12/15 12:20:16;;;;;;;;;8.67;7.33;;;;;12.43;65.15;102966.19;4954216;28;45960;-90
2021/12/15 12:22:45;;;;;;;;;17.67;14.33;;;;;12.46;65.12;102974.31;4954492;28;45603;-90
2021/12/15 12:25:23;;;;;;;;;12.67;12.00;;;;;12.42;65.02;102967.88;4953550;28;45266;-88
2021/12/15 12:27:49;;;;;;;;;12.67;12.00;;;;;12.43;65.18;102961.81;4953194;28;48453;-87
2021/12/15 12:30:20;;;;;;;;;11.33;9.33;;;;;12.43;65.31;102961.81;4951817;28;45398;-88
2021/12/15 12:32:46;;;;;;;;;7.67;6.67;;;;;12.49;65.09;102967.56;4968859;28;45648;-88
2021/12/15 12:35:18;;;;;;;;;9.33;7.00;;;;;12.51;65.39;102965.94;4956975;28;45481;-87
2021/12/15 12:37:43;;;;;;;;;11.67;10.33;;;;;12.50;65.58;102961.47;4958816;28;47435;-88
2021/12/15 12:40:22;;;;;;;;;24.00;19.00;;;;;12.51;65.41;102958.03;4965352;28;45388;-88
2021/12/15 12:42:48;;;;;;;;;13.33;10.33;;;;;12.53;65.33;102958.16;4961809;28;45432;-88
2021/12/15 12:45:19;;;;;;;;;14.67;12.67;;;;;12.53;65.18;102955.50;4991552;28;44931;-89
2021/12/15 12:48:06;;;;;;;;;28.00;23.50;;;;;12.48;65.09;102955.19;4979369;28;47553;-88
2021/12/15 13:01:11;;;;;;;;;39.00;31.75;;;;;12.24;65.88;102949.94;4950537;28;45449;-87
2021/12/15 13:03:42;;;;;;;;;36.00;31.25;;;;;12.30;65.99;102960.00;4947934;28;45351;-87
2021/12/15 13:06:11;;;;;;;;;35.25;31.50;;;;;12.32;65.92;102954.88;4956261;28;45544;-86
2021/12/15 13:08:40;;;;;;;;;36.50;33.00;;;;;12.34;66.52;102955.91;4954436;28;45864;-86
2021/12/15 13:11:15;;;;;;;;;35.75;30.00;;;;;12.39;65.87;102954.50;4954571;28;45742;-86
2021/12/15 13:14:10;;;;;;;;;34.50;30.00;;;;;12.36;66.13;102955.22;4954827;28;45547;-87
2021/12/15 13:16:56;;;;;;;;;18.00;16.67;;;;;12.32;65.35;102953.13;4956805;28;45827;-87
2021/12/15 13:19:27;;;;;;;;;13.00;13.00;;;;;12.33;65.38;102951.41;4970624;28;47111;-87
2021/12/15 13:30:50;;;;;;;;;9.67;9.67;;;;;12.36;64.80;102946.38;4955191;28;45762;-86
2021/12/15 13:33:37;;;;;;;;;12.00;12.00;;;;;12.34;65.32;102950.63;4952904;28;45562;-86
2021/12/15 13:36:30;;;;;;;;;13.00;13.00;;;;;12.32;64.71;102950.50;4944401;28;45376;-86
2021/12/15 13:39:13;;;;;;;;;10.00;9.00;;;;;12.26;64.49;102945.72;4966664;28;45519;-86
2021/12/15 13:44:36;;;;;;;;;9.00;8.33;;;;;12.15;64.92;102952.81;4936740;28;45571;-86
2021/12/15 13:47:07;;;;;;;;;9.33;7.67;;;;;12.12;64.98;102947.28;4937272;28;45346;-86
2021/12/15 13:49:44;;;;;;;;;12.33;12.33;;;;;12.12;64.45;102948.97;4938072;28;45417;-86
2021/12/15 13:52:14;;;;;;;;;17.00;15.67;;;;;12.09;64.98;102944.41;4913184;28;47163;-87
2021/12/15 13:54:40;;;;;;;;;13.00;11.67;;;;;12.09;64.96;102946.13;4915256;28;45802;-86
2021/12/15 13:57:11;;;;;;;;;11.33;11.33;;;;;12.05;64.69;102948.53;4917757;28;45435;-87
2021/12/15 13:59:55;;;;;;;;;13.33;12.67;;;;;12.00;64.97;102939.38;4932776;28;45531;-86
2021/12/15 14:02:26;;;;;;;;;15.67;14.67;;;;;12.00;65.15;102944.66;4935024;28;45606;-86
2021/12/15 14:04:53;;;;;;;;;15.33;15.00;;;;;12.00;65.49;102952.56;4934764;28;45443;-86
2021/12/15 14:07:28;;;;;;;;;15.33;15.33;;;;;12.00;65.39;102947.28;4933404;28;45999;-86
2021/12/15 14:09:56;;;;;;;;;15.00;14.67;;;;;12.00;64.83;102942.03;4910963;28;45600;-86
2021/12/15 14:12:44;;;;;;;;;13.00;12.67;;;;;12.00;64.89;102944.66;4929089;28;45494;-85
2021/12/15 14:15:09;;;;;;;;;17.67;15.67;;;;;11.97;65.23;102939.16;4916888;28;50876;-86
2021/12/15 14:17:35;;;;;;;;;15.00;12.33;;;;;12.01;65.21;102948.22;4944240;28;45282;-86
2021/12/15 14:20:00;;;;;;;;;18.33;14.67;;;;;11.97;65.07;102933.88;4917385;28;45622;-86
2021/12/15 14:22:25;;;;;;;;;10.33;10.00;;;;;11.99;64.99;102944.50;4942019;28;46466;-86
2021/12/15 14:24:54;;;;;;;;;18.00;12.33;;;;;11.92;64.70;102932.63;4917871;28;45476;-86
2021/12/15 14:27:21;;;;;;;;;13.00;10.33;;;;;11.87;64.81;102932.28;4921227;28;45371;-86
2021/12/15 14:29:47;;;;;;;;;12.00;10.33;;;;;11.88;64.88;102943.72;4934964;28;45563;-86
2021/12/15 14:32:13;;;;;;;;;13.67;12.67;;;;;11.87;64.90;102944.53;4937356;28;45521;-86
2021/12/15 14:34:39;;;;;;;;;10.67;10.00;;;;;11.87;64.90;102950.69;4918542;28;45536;-86
2021/12/15 14:37:12;;;;;;;;;11.33;11.33;;;;;11.85;64.82;102954.94;4939392;28;45404;-86
2021/12/15 14:39:40;;;;;;;;;11.33;11.33;;;;;11.85;64.99;102950.56;4940541;28;45456;-87
2021/12/15 14:42:10;;;;;;;;;12.00;10.00;;;;;11.84;65.46;102951.38;4953478;28;45568;-86
2021/12/15 14:44:44;;;;;;;;;13.33;11.67;;;;;11.88;65.53;102962.16;4948717;28;45836;-86
2021/12/15 14:47:13;;;;;;;;;11.00;9.33;;;;;11.85;65.21;102958.47;4951710;28;45627;-86
2021/12/15 14:49:49;;;;;;;;;10.00;10.00;;;;;11.84;65.65;102959.28;4950481;28;45460;-87
2021/12/15 14:52:22;;;;;;;;;10.00;9.00;;;;;11.86;65.02;102967.28;4952652;28;47382;-86
2021/12/15 14:54:51;;;;;;;;;17.00;11.00;;;;;11.82;64.76;102967.84;4950978;28;45925;-86
2021/12/15 14:57:22;;;;;;;;;12.00;10.67;;;;;11.77;65.42;102958.69;4952910;28;45550;-86
2021/12/15 14:59:55;;;;;;;;;12.00;11.33;;;;;11.76;64.72;102970.94;4952862;28;49589;-86
2021/12/15 15:02:30;;;;;;;;;13.00;13.00;;;;;11.73;65.38;102976.88;4953327;28;47123;-86
2021/12/15 15:05:01;;;;;;;;;15.00;12.00;;;;;11.73;65.45;102968.97;4949220;28;46117;-87
2021/12/15 15:07:32;;;;;;;;;11.33;11.33;;;;;11.73;65.37;102974.25;4952147;28;45907;-87
2021/12/15 15:10:00;;;;;;;;;15.00;11.33;;;;;11.73;65.61;102974.25;4934599;28;45376;-86
2021/12/15 15:12:33;;;;;;;;;13.67;11.67;;;;;11.71;65.61;102970.59;4934610;28;47265;-86
2021/12/15 15:15:15;;;;;;;;;13.33;11.00;;;;;11.68;66.04;102977.31;4932468;28;45607;-86
2021/12/15 15:17:53;;;;;;;;;13.00;12.00;;;;;11.70;65.94;102979.25;4937368;28;45517;-86
2021/12/15 15:20:29;;;;;;;;;13.00;12.33;;;;;11.66;65.43;102971.94;4951075;28;45592;-86
2021/12/15 15:23:01;;;;;;;;;13.67;12.67;;;;;11.65;65.99;102970.09;4953565;28;48123;-86
2021/12/15 15:25:30;;;;;;;;;12.33;10.00;;;;;11.65;64.88;102978.00;4931868;28;45428;-86
2021/12/15 15:28:01;;;;;;;;;13.33;12.00;;;;;11.63;65.22;102976.97;4948193;28;45469;-87
2021/12/15 15:30:30;;;;;;;;;17.67;15.00;;;;;11.63;65.30;102969.06;4943142;28;47620;-87
2021/12/15 15:32:59;;;;;;;;;18.00;14.67;;;;;11.57;65.46;102960.72;4947408;28;46243;-86
2021/12/15 15:35:28;;;;;;;;;13.00;12.00;;;;;11.61;65.72;102973.31;4947128;28;45519;-86
2021/12/15 15:37:57;;;;;;;;;16.33;14.33;;;;;11.56;65.49;102970.31;4953637;28;45614;-87
2021/12/15 15:40:36;;;;;;;;;17.00;13.00;;;;;11.60;65.69;102968.81;4942037;28;45420;-86
2021/12/15 15:43:09;;;;;;;;;13.67;13.00;;;;;11.59;65.02;102970.56;4920162;28;47854;-86
2021/12/15 15:45:42;;;;;;;;;20.67;15.00;;;;;11.55;65.93;102976.38;4917565;28;45416;-87
2021/12/15 15:48:13;;;;;;;;;16.00;14.33;;;;;11.60;65.62;102982.91;4915611;28;45392;-87
2021/12/15 15:50:44;;;;;;;;;16.00;14.00;;;;;11.59;65.38;102980.16;4947295;28;45642;-89
2021/12/15 15:53:11;;;;;;;;;12.67;12.67;;;;;11.59;65.36;102978.47;4945343;28;47539;-91
2021/12/15 15:55:39;;;;;;;;;14.33;14.00;;;;;11.62;66.03;102986.56;4935047;28;45432;-90
2021/12/15 15:58:07;;;;;;;;;17.00;17.00;;;;;11.62;65.85;102977.78;4931342;28;45432;-86
2021/12/15 16:00:53;;;;;;;;;18.67;14.33;;;;;11.62;66.20;102975.16;4936840;28;45861;-87
2021/12/15 16:03:25;;;;;;;;;18.33;16.33;;;;;11.62;65.83;102988.31;4930390;28;46352;-87
2021/12/15 16:05:53;;;;;;;;;15.00;13.00;;;;;11.59;65.85;102986.34;4937813;28;45342;-87
2021/12/15 16:08:20;;;;;;;;;22.00;18.33;;;;;11.64;65.82;102997.22;4932016;28;45734;-87
2021/12/15 16:10:47;;;;;;;;;15.00;12.67;;;;;11.66;66.02;102998.25;4932662;28;45511;-87
2021/12/15 16:13:17;;;;;;;;;19.33;18.67;;;;;11.67;66.00;102999.19;4911237;28;47602;-86
2021/12/15 16:15:49;;;;;;;;;20.33;19.00;;;;;11.66;66.28;103000.88;4926949;28;45464;-87
2021/12/15 16:18:25;;;;;;;;;18.00;15.33;;;;;11.66;65.97;102994.69;4927220;28;45291;-87
2021/12/15 16:23:30;;;;;;;;;11.67;11.67;;;;;11.65;66.73;102995.50;4930426;28;45488;-87
2021/12/15 16:25:59;;;;;;;;;12.00;12.00;;;;;11.65;66.41;103000.78;4913950;28;46171;-87
2021/12/15 16:28:25;;;;;;;;;17.67;16.67;;;;;11.68;66.43;103003.63;4927413;28;45390;-87
2021/12/15 16:30:56;;;;;;;;;18.67;15.67;;;;;11.68;66.53;103001.00;4932108;28;45611;-87
2021/12/15 16:33:32;;;;;;;;;15.33;12.67;;;;;11.65;66.33;102991.16;4951429;28;48373;-87
2021/12/15 16:36:00;;;;;;;;;13.67;13.00;;;;;11.69;66.25;103000.22;4952436;28;45834;-87
2021/12/15 16:38:30;;;;;;;;;12.33;12.33;;;;;11.66;66.71;103002.59;4926646;28;45595;-87
2021/12/15 16:41:01;;;;;;;;;12.00;12.00;;;;;11.68;66.90;103006.25;4952496;28;45494;-87
2021/12/15 16:43:45;;;;;;;;;13.33;13.33;;;;;11.60;66.82;102998.69;4946878;28;47377;-87
2021/12/15 16:46:14;;;;;;;;;13.00;11.67;;;;;11.60;66.21;103003.03;4953441;28;45596;-87
2021/12/15 16:48:42;;;;;;;;;17.33;12.33;;;;;11.61;67.15;103016.31;4947717;28;45420;-87
2021/12/15 16:51:11;;;;;;;;;25.00;17.67;;;;;11.65;66.96;103017.44;4949672;28;45738;-86
2021/12/15 16:53:47;;;;;;;;;22.67;17.67;;;;;11.66;66.85;103015.75;4951281;28;45538;-86
2021/12/15 16:56:22;;;;;;;;;23.67;19.67;;;;;11.65;67.24;103011.31;4951277;28;45582;-86
2021/12/15 16:59:06;;;;;;;;;19.67;17.00;;;;;11.66;66.43;103010.47;4952716;28;45419;-87
2021/12/15 17:01:37;;;;;;;;;22.67;18.33;;;;;11.66;66.66;103021.00;4967200;28;45582;-86
2021/12/15 17:04:04;;;;;;;;;23.00;21.67;;;;;11.63;67.20;103019.06;4965419;28;46589;-86
2021/12/15 17:06:32;;;;;;;;;18.00;16.33;;;;;11.65;67.15;103022.72;4963613;28;45594;-87
2021/12/15 17:08:57;;;;;;;;;16.00;16.00;;;;;11.64;67.16;103018.28;4948920;28;45435;-87
2021/12/15 17:11:23;;;;;;;;;19.67;16.00;;;;;11.65;67.07;103021.81;4967899;28;45523;-87
2021/12/15 17:13:50;;;;;;;;;17.67;15.67;;;;;11.65;66.83;103032.34;4953527;28;46054;-87
2021/12/15 17:16:25;;;;;;;;;21.00;17.67;;;;;11.54;66.56;103023.59;4951937;28;46185;-87
2021/12/15 17:18:51;;;;;;;;;19.67;17.33;;;;;11.50;67.38;103020.72;4969906;28;45348;-88
2021/12/15 17:21:24;;;;;;;;;17.33;15.33;;;;;11.48;66.72;103026.66;4967527;28;48764;-87
2021/12/15 17:24:02;;;;;;;;;16.33;16.33;;;;;11.44;66.64;103036.00;4952737;28;48199;-87
2021/12/15 17:26:30;;;;;;;;;16.33;16.33;;;;;11.33;67.29;103026.38;4943252;28;45473;-88
2021/12/15 17:28:59;;;;;;;;;21.00;17.33;;;;;11.31;66.98;103039.41;4954411;28;45373;-87
2021/12/15 17:31:36;;;;;;;;;16.67;16.00;;;;;11.22;67.32;103030.78;4951097;28;49720;-87
2021/12/15 17:34:11;;;;;;;;;28.75;24.50;;;;;11.12;66.98;103030.06;4951701;28;47483;-86
2021/12/15 17:36:44;;;;;;;;;16.33;15.00;;;;;11.10;66.97;103035.97;4967600;28;46983;-86
2021/12/15 17:39:12;;;;;;;;;25.33;23.00;;;;;11.05;66.70;103044.44;4950084;28;45404;-86
2021/12/15 17:42:05;;;;;;;;;22.67;21.67;;;;;10.96;66.54;103043.66;4966429;28;45510;-85
2021/12/15 17:44:43;;;;;;;;;24.67;21.33;;;;;10.83;66.93;103041.75;4951327;28;46406;-86
2021/12/15 17:47:29;;;;;;;;;22.00;20.00;;;;;10.76;66.90;103039.41;4953160;28;45478;-87
2021/12/15 17:50:06;;;;;;;;;21.33;20.00;;;;;10.65;67.13;103036.81;4951652;28;45424;-86
2021/12/15 17:52:39;;;;;;;;;23.75;22.25;;;;;10.60;67.04;103052.22;4946706;28;51252;-86
2021/12/15 17:55:25;;;;;;;;;26.00;23.50;;;;;10.50;66.95;103052.19;4947414;28;46339;-87
2021/12/15 17:57:56;;;;;;;;;22.50;20.00;;;;;10.39;67.07;103057.47;4966113;28;45871;-87
2021/12/15 18:00:37;;;;;;;;;20.00;18.33;;;;;10.33;67.94;103048.19;4948578;28;45566;-86
2021/12/15 18:03:08;;;;;;;;;21.00;17.50;;;;;10.36;67.93;103041.47;4950629;28;45621;-87
2021/12/15 18:05:34;;;;;;;;;23.50;18.75;;;;;10.30;67.92;103038.34;4944728;28;48404;-86
2021/12/15 18:07:59;;;;;;;;;24.50;21.25;;;;;10.24;67.75;103037.81;4949218;28;45586;-87
2021/12/15 18:10:36;;;;;;;;;25.50;23.00;;;;;10.22;67.71;103050.81;4952147;28;45907;-86
2021/12/15 18:13:02;;;;;;;;;26.00;24.00;;;;;10.22;68.12;103063.94;4950086;28;45498;-86
2021/12/15 18:15:28;;;;;;;;;32.00;29.00;;;;;10.21;67.76;103061.16;4947861;28;46587;-86
2021/12/15 18:17:53;;;;;;;;;35.50;32.00;;;;;10.11;67.42;103064.72;4951795;28;45958;-86
2021/12/15 18:20:19;;;;;;;;;39.75;35.00;;;;;9.97;67.87;103054.00;4947318;28;46130;-86
2021/12/15 18:22:44;;;;;;;;;45.25;36.00;;;;;10.00;67.72;103079.59;4954837;28;45546;-87
2021/12/15 18:25:09;;;;;;;;;51.50;40.75;;;;;9.92;68.42;103064.06;4951608;28;47049;-87
2021/12/15 18:27:35;;;;;;;;;52.00;41.25;;;;;9.90;68.26;103056.84;4953876;28;45475;-87
2021/12/15 18:30:01;;;;;;;;;49.50;40.25;;;;;9.89;67.87;103068.16;4949604;28;45949;-89
2021/12/15 18:32:27;;;;;;;;;52.75;41.00;;;;;9.84;68.32;103063.41;4942120;28;45577;-85
2021/12/15 18:34:57;;;;;;;;;47.00;38.75;;;;;9.85;68.17;103066.97;4953059;28;47096;-87
2021/12/15 18:37:25;;;;;;;;;47.50;39.50;;;;;9.82;68.42;103064.06;4953909;28;45541;-88
2021/12/15 18:39:51;;;;;;;;;41.75;35.75;;;;;9.79;68.30;103067.34;4967478;28;45476;-87
2021/12/15 18:42:23;;;;;;;;;39.00;35.25;;;;;9.75;68.29;103061.72;4954052;28;45550;-87
2021/12/15 18:44:50;;;;;;;;;39.25;35.00;;;;;9.75;68.04;103078.38;4954651;28;46491;-87
2021/12/15 18:47:17;;;;;;;;;46.25;36.50;;;;;9.70;68.95;103077.06;4954491;28;45696;-87
2021/12/15 18:49:44;;;;;;;;;42.50;35.25;;;;;9.75;68.80;103086.25;4967542;28;45382;-88
2021/12/15 18:52:13;;;;;;;;;40.00;34.75;;;;;9.71;68.34;103084.16;4951824;28;45490;-88
2021/12/15 18:54:41;;;;;;;;;42.50;35.50;;;;;9.73;68.46;103087.81;4952989;28;46145;-89
2021/12/15 18:57:09;;;;;;;;;40.25;36.00;;;;;9.67;69.09;103087.28;4938864;28;45553;-91
2021/12/15 18:59:35;;;;;;;;;40.00;35.25;;;;;9.72;68.80;103085.97;4943906;28;45361;-89
2021/12/15 19:02:06;;;;;;;;;40.75;36.75;;;;;9.70;69.02;103085.84;4957085;28;45294;-91
2021/12/15 19:04:34;;;;;;;;;40.00;37.00;;;;;9.74;69.24;103089.63;4962129;28;48774;-89
2021/12/15 19:07:00;;;;;;;;;42.25;36.75;;;;;9.77;69.05;103096.84;4969177;28;45396;-88
2021/12/15 19:09:29;;;;;;;;;46.00;36.50;;;;;9.77;68.97;103097.78;4953590;28;45545;-89
2021/12/15 19:11:56;;;;;;;;;40.75;36.00;;;;;9.76;69.12;103098.59;4953898;28;45659;-90
2021/12/15 19:14:26;;;;;;;;;46.25;36.50;;;;;9.75;68.67;103099.34;4953654;28;45584;-86
2021/12/15 19:16:54;;;;;;;;;41.25;37.25;;;;;9.69;68.56;103099.72;4952985;28;45856;-86
2021/12/15 19:19:22;;;;;;;;;40.50;37.25;;;;;9.64;68.21;103097.53;4965044;28;45474;-86
2021/12/15 19:21:49;;;;;;;;;43.50;36.25;;;;;9.60;68.90;103107.72;4961779;28;46982;-86
2021/12/15 19:24:14;;;;;;;;;44.75;38.00;;;;;9.53;69.22;103097.50;4940880;28;47120;-86
2021/12/15 19:26:42;;;;;;;;;49.25;39.50;;;;;9.56;68.89;103107.34;4952214;28;45555;-85
2021/12/15 19:29:09;;;;;;;;;50.00;39.25;;;;;9.53;68.90;103112.31;4967986;28;45463;-87
2021/12/15 19:31:35;;;;;;;;;46.75;39.50;;;;;9.48;68.83;103114.53;4951442;28;45506;-86
2021/12/15 19:34:02;;;;;;;;;44.25;37.25;;;;;9.49;69.09;103117.25;4952560;28;45431;-86
2021/12/15 19:36:29;;;;;;;;;54.00;40.25;;;;;9.49;69.20;103119.88;4951534;28;45940;-86
2021/12/15 19:38:56;;;;;;;;;51.50;40.50;;;;;9.47;69.17;103124.09;4951803;28;45525;-87
2021/12/15 19:41:23;;;;;;;;;48.00;39.00;;;;;9.45;69.50;103128.28;4917860;28;45609;-86
2021/12/15 19:43:49;;;;;;;;;43.75;37.50;;;;;9.48;69.56;103131.16;4938424;28;46662;-90
2021/12/15 19:46:15;;;;;;;;;48.00;40.25;;;;;9.51;69.89;103130.50;4932800;28;45609;-91
2021/12/15 19:48:43;;;;;;;;;53.50;42.00;;;;;9.54;70.01;103132.47;4920019;28;45541;-87